Time;durP1;ratioP1;P1;durP2;ratioP2;P2;SDS_P1;SDS_P2;PMS_P1;PMS_P2;Temp;Humidity;BMP_temperature;BMP_pressure;BME280_temperature;BME280_humidity;BME280_pressure;Samples;Min_cycle;Max_cycle;Signal;HPM_P1;HPM_P2
2024/04/09 00:02:25;;;;;;;11.50;6.80;;;;;;;;;;5306613;27;20001;-60
2024/04/09 00:04:51;;;;;;;13.68;9.43;;;;;;;;;;5307051;26;20004;-56
2024/04/09 00:07:18;;;;;;;12.10;7.10;;;;;;;;;;5307088;26;20011;-58
2024/04/09 00:09:44;;;;;;;12.13;7.10;;;;;;;;;;5307700;27;20480;-58
2024/04/09 00:12:21;;;;;;;12.35;7.50;;;;;;;;;;5307581;26;20001;-57
2024/04/09 00:14:47;;;;;;;11.95;6.95;;;;;;;;;;5307831;26;20004;-58
2024/04/09 00:17:14;;;;;;;12.45;7.25;;;;;;;;;;5307993;26;20080;-57
2024/04/09 00:19:40;;;;;;;13.10;7.70;;;;;;;;;;5307941;26;20365;-58
2024/04/09 00:22:06;;;;;;;13.25;7.80;;;;;;;;;;5308502;26;19994;-57
2024/04/09 00:24:32;;;;;;;13.48;8.20;;;;;;;;;;5307502;26;20513;-57
2024/04/09 00:27:01;;;;;;;13.60;8.70;;;;;;;;;;5308147;27;20018;-56
2024/04/09 00:29:28;;;;;;;13.73;9.02;;;;;;;;;;5307830;26;20488;-58
2024/04/09 00:31:54;;;;;;;13.68;8.90;;;;;;;;;;5307573;27;20008;-59
2024/04/09 00:34:20;;;;;;;13.77;9.10;;;;;;;;;;5307654;26;20002;-56
2024/04/09 00:36:46;;;;;;;13.88;9.30;;;;;;;;;;5307653;26;20039;-56
2024/04/09 00:39:22;;;;;;;13.85;9.32;;;;;;;;;;5307574;26;19994;-60
2024/04/09 00:41:48;;;;;;;13.85;9.48;;;;;;;;;;5307700;27;20376;-56
2024/04/09 00:44:14;;;;;;;13.88;9.40;;;;;;;;;;5306970;26;20006;-58
2024/04/09 00:46:42;;;;;;;13.82;9.38;;;;;;;;;;5306724;26;20013;-57
2024/04/09 00:49:08;;;;;;;14.10;10.15;;;;;;;;;;5307699;27;19997;-57
2024/04/09 00:51:34;;;;;;;13.82;9.25;;;;;;;;;;5307841;27;19996;-58
2024/04/09 00:54:01;;;;;;;13.90;9.55;;;;;;;;;;5306387;27;20001;-58
2024/04/09 00:56:27;;;;;;;13.88;9.30;;;;;;;;;;5307444;26;20471;-58
2024/04/09 00:58:53;;;;;;;13.80;9.27;;;;;;;;;;5307824;27;20021;-56
2024/04/09 01:01:20;;;;;;;13.75;9.23;;;;;;;;;;5307500;26;20483;-57
2024/04/09 01:03:48;;;;;;;13.70;9.02;;;;;;;;;;5310394;27;20012;-59
2024/04/09 01:06:14;;;;;;;13.88;9.30;;;;;;;;;;5311722;26;19997;-57
2024/04/09 01:08:40;;;;;;;13.82;9.30;;;;;;;;;;5310281;26;20008;-58
2024/04/09 01:11:07;;;;;;;13.80;9.23;;;;;;;;;;5308557;27;19994;-56
2024/04/09 01:13:34;;;;;;;13.88;9.55;;;;;;;;;;5307229;27;20009;-58
2024/04/09 01:16:01;;;;;;;14.10;10.10;;;;;;;;;;5307394;26;19997;-56
2024/04/09 01:18:27;;;;;;;14.05;9.95;;;;;;;;;;5307623;26;20067;-58
2024/04/09 01:20:54;;;;;;;14.05;10.00;;;;;;;;;;5307688;27;19990;-57
2024/04/09 01:23:20;;;;;;;13.90;9.63;;;;;;;;;;5307432;27;20343;-55
2024/04/09 01:25:46;;;;;;;13.90;9.55;;;;;;;;;;5307130;26;19993;-57
2024/04/09 01:28:13;;;;;;;13.90;9.68;;;;;;;;;;5306031;26;20084;-58
2024/04/09 01:30:40;;;;;;;13.82;9.32;;;;;;;;;;5359957;26;20380;-59
2024/04/09 01:33:06;;;;;;;13.77;9.15;;;;;;;;;;5376502;26;19996;-59
2024/04/09 01:35:32;;;;;;;16.30;12.98;;;;;;;;;;5376192;26;20574;-57
2024/04/09 01:37:59;;;;;;;13.75;9.15;;;;;;;;;;5376138;26;19997;-60
2024/04/09 01:40:25;;;;;;;13.50;8.80;;;;;;;;;;5376485;26;19997;-57
2024/04/09 01:42:50;;;;;;;13.57;8.77;;;;;;;;;;5351484;26;20008;-59
2024/04/09 01:45:17;;;;;;;13.70;9.00;;;;;;;;;;5341278;26;20056;-57
2024/04/09 01:47:43;;;;;;;13.75;9.18;;;;;;;;;;5341597;26;20017;-57
2024/04/09 01:50:10;;;;;;;13.77;9.32;;;;;;;;;;5341141;26;20086;-56
2024/04/09 01:52:37;;;;;;;13.75;9.25;;;;;;;;;;5341199;26;20007;-57
2024/04/09 01:55:05;;;;;;;13.85;9.30;;;;;;;;;;5341021;26;20009;-57
2024/04/09 01:57:31;;;;;;;13.88;9.57;;;;;;;;;;5341119;26;20033;-57
2024/04/09 01:59:57;;;;;;;13.90;9.48;;;;;;;;;;5339269;26;19993;-58
2024/04/09 02:02:23;;;;;;;13.95;9.63;;;;;;;;;;5341414;26;20138;-57
2024/04/09 02:04:49;;;;;;;13.98;9.80;;;;;;;;;;5340881;26;20390;-58
2024/04/09 02:07:15;;;;;;;13.90;9.60;;;;;;;;;;5344352;26;19997;-57
2024/04/09 02:09:42;;;;;;;13.95;9.60;;;;;;;;;;5345006;26;20004;-55
2024/04/09 02:12:08;;;;;;;14.05;10.10;;;;;;;;;;5343915;26;19996;-58
2024/04/09 02:14:35;;;;;;;19.35;11.60;;;;;;;;;;5343777;26;20066;-58
2024/04/09 02:17:01;;;;;;;14.38;10.43;;;;;;;;;;5344859;26;20489;-57
2024/04/09 02:19:27;;;;;;;14.18;10.15;;;;;;;;;;5344653;26;20334;-57
2024/04/09 02:21:53;;;;;;;13.93;9.65;;;;;;;;;;5344257;26;20018;-59
2024/04/09 02:24:19;;;;;;;13.95;9.65;;;;;;;;;;5344846;26;19997;-58
2024/04/09 02:26:47;;;;;;;13.93;9.60;;;;;;;;;;5344179;26;19993;-54
2024/04/09 02:29:13;;;;;;;14.02;9.52;;;;;;;;;;5344174;26;20356;-55
2024/04/09 02:31:40;;;;;;;14.63;9.82;;;;;;;;;;5344065;26;20012;-55
2024/04/09 02:34:05;;;;;;;13.80;9.20;;;;;;;;;;5343638;26;20007;-56
2024/04/09 02:36:31;;;;;;;14.13;9.63;;;;;;;;;;5344112;26;20463;-56
2024/04/09 02:38:57;;;;;;;13.90;9.60;;;;;;;;;;5343911;26;20000;-58
2024/04/09 02:41:24;;;;;;;14.00;10.15;;;;;;;;;;5344010;26;20000;-57
2024/04/09 02:43:51;;;;;;;13.60;8.70;;;;;;;;;;5343915;26;20114;-58
2024/04/09 02:46:17;;;;;;;13.68;8.80;;;;;;;;;;5345290;26;19993;-57
2024/04/09 02:48:43;;;;;;;13.90;9.20;;;;;;;;;;5348070;26;19989;-56
2024/04/09 02:51:09;;;;;;;13.77;8.98;;;;;;;;;;5347985;26;19997;-57
2024/04/09 02:53:36;;;;;;;15.00;10.15;;;;;;;;;;5346342;26;20008;-57
2024/04/09 02:56:03;;;;;;;13.63;8.70;;;;;;;;;;5345560;26;20041;-58
2024/04/09 02:58:29;;;;;;;13.60;8.57;;;;;;;;;;5345506;26;20004;-54
2024/04/09 03:00:56;;;;;;;13.52;8.35;;;;;;;;;;5344911;26;19997;-51
2024/04/09 03:03:22;;;;;;;13.48;8.20;;;;;;;;;;5344601;26;19993;-54
2024/04/09 03:05:49;;;;;;;13.38;8.07;;;;;;;;;;5343888;26;20004;-55
2024/04/09 03:08:15;;;;;;;13.43;8.10;;;;;;;;;;5343740;26;20041;-53
2024/04/09 03:10:41;;;;;;;13.20;7.70;;;;;;;;;;5343595;26;20001;-57
2024/04/09 03:13:07;;;;;;;14.68;9.75;;;;;;;;;;5343589;26;19993;-57
2024/04/09 03:15:33;;;;;;;13.00;7.60;;;;;;;;;;5344294;26;20011;-56
2024/04/09 03:17:59;;;;;;;13.52;8.07;;;;;;;;;;5345719;26;20027;-59
2024/04/09 03:20:25;;;;;;;13.32;8.00;;;;;;;;;;5346723;26;19997;-56
2024/04/09 03:22:51;;;;;;;12.63;7.40;;;;;;;;;;5343553;26;20003;-60
2024/04/09 03:25:17;;;;;;;12.68;7.40;;;;;;;;;;5343434;26;20009;-57
2024/04/09 03:27:43;;;;;;;13.10;7.70;;;;;;;;;;5343046;26;20061;-59
2024/04/09 03:30:09;;;;;;;12.50;7.30;;;;;;;;;;5343239;26;20438;-61
2024/04/09 03:32:35;;;;;;;12.80;7.45;;;;;;;;;;5343152;26;20004;-58
2024/04/09 03:35:01;;;;;;;13.10;7.60;;;;;;;;;;5343417;26;20000;-59
2024/04/09 03:37:27;;;;;;;12.80;7.40;;;;;;;;;;5344799;26;19997;-60
2024/04/09 03:39:53;;;;;;;15.13;8.50;;;;;;;;;;5344782;26;20063;-60
2024/04/09 03:42:19;;;;;;;12.80;7.70;;;;;;;;;;5343710;26;20007;-58
2024/04/09 03:44:45;;;;;;;12.43;7.22;;;;;;;;;;5343494;26;20008;-59
2024/04/09 03:47:11;;;;;;;12.40;7.20;;;;;;;;;;5343119;26;19996;-59
2024/04/09 03:49:37;;;;;;;11.93;7.00;;;;;;;;;;5343047;26;19997;-59
2024/04/09 03:52:04;;;;;;;12.20;7.10;;;;;;;;;;5342618;26;20007;-59
2024/04/09 03:54:30;;;;;;;15.60;9.68;;;;;;;;;;5342350;26;20362;-58
2024/04/09 03:56:56;;;;;;;11.90;7.00;;;;;;;;;;5342294;26;20059;-60
2024/04/09 03:59:22;;;;;;;12.20;7.10;;;;;;;;;;5342853;26;20009;-57
2024/04/09 04:01:48;;;;;;;12.55;7.30;;;;;;;;;;5342554;26;19989;-56
2024/04/09 04:04:14;;;;;;;12.73;7.40;;;;;;;;;;5342346;26;19997;-57
2024/04/09 04:06:40;;;;;;;12.57;7.35;;;;;;;;;;5342356;26;20509;-56
2024/04/09 04:09:09;;;;;;;13.05;7.60;;;;;;;;;;5342151;26;20009;-57
2024/04/09 04:11:36;;;;;;;13.30;8.00;;;;;;;;;;5341217;26;20366;-54
2024/04/09 04:14:02;;;;;;;13.40;8.00;;;;;;;;;;5340945;26;20075;-57
2024/04/09 04:16:28;;;;;;;13.48;8.23;;;;;;;;;;5342727;26;20005;-56
2024/04/09 04:18:54;;;;;;;13.25;7.82;;;;;;;;;;5340436;26;20029;-54
2024/04/09 04:21:21;;;;;;;13.07;7.80;;;;;;;;;;5342021;26;20406;-56
2024/04/09 04:23:48;;;;;;;13.38;8.00;;;;;;;;;;5341721;26;20001;-57
2024/04/09 04:26:14;;;;;;;13.38;8.00;;;;;;;;;;5342200;26;20013;-58
2024/04/09 04:28:44;;;;;;;13.32;7.90;;;;;;;;;;5341181;26;19997;-57
2024/04/09 04:31:20;;;;;;;13.20;7.80;;;;;;;;;;5342246;26;20438;-54
2024/04/09 04:33:47;;;;;;;13.32;7.97;;;;;;;;;;5341861;26;20029;-56
2024/04/09 04:36:14;;;;;;;13.32;8.00;;;;;;;;;;5341956;26;20455;-55
2024/04/09 04:38:40;;;;;;;12.88;7.60;;;;;;;;;;5342191;26;20000;-58
2024/04/09 04:41:07;;;;;;;13.10;7.88;;;;;;;;;;5341721;26;19997;-54
2024/04/09 04:43:33;;;;;;;13.27;7.82;;;;;;;;;;5342020;26;20001;-58
2024/04/09 04:46:00;;;;;;;13.60;8.50;;;;;;;;;;5341987;26;20309;-53
2024/04/09 04:48:27;;;;;;;13.85;8.75;;;;;;;;;;5340222;26;20108;-56
2024/04/09 04:50:53;;;;;;;15.15;9.27;;;;;;;;;;5342304;26;19993;-60
2024/04/09 04:53:20;;;;;;;13.38;8.02;;;;;;;;;;5341921;26;20458;-55
2024/04/09 04:55:46;;;;;;;16.15;9.55;;;;;;;;;;5341571;26;19993;-61
2024/04/09 04:58:12;;;;;;;15.40;13.15;;;;;;;;;;5341851;26;20021;-55
2024/04/09 05:00:39;;;;;;;15.75;14.05;;;;;;;;;;5342102;26;20048;-57
2024/04/09 05:03:06;;;;;;;15.93;14.23;;;;;;;;;;5341161;26;19993;-55
2024/04/09 05:05:32;;;;;;;16.23;14.52;;;;;;;;;;5339736;26;20408;-57
2024/04/09 05:07:59;;;;;;;17.00;15.30;;;;;;;;;;5341729;26;20000;-55
2024/04/09 05:10:25;;;;;;;17.55;15.75;;;;;;;;;;5341580;26;20007;-56
2024/04/09 05:12:52;;;;;;;19.30;17.40;;;;;;;;;;5341090;26;19993;-59
2024/04/09 05:15:18;;;;;;;21.55;19.65;;;;;;;;;;5341153;26;20035;-56
2024/04/09 05:17:45;;;;;;;20.35;18.48;;;;;;;;;;5341151;26;20003;-58
2024/04/09 05:20:14;;;;;;;20.65;18.75;;;;;;;;;;5341232;26;19989;-55
2024/04/09 05:22:41;;;;;;;20.95;19.05;;;;;;;;;;5340728;26;20405;-56
2024/04/09 05:25:08;;;;;;;18.80;17.00;;;;;;;;;;5340187;26;20021;-59
2024/04/09 05:27:34;;;;;;;17.70;15.93;;;;;;;;;;5340589;26;20000;-60
2024/04/09 05:30:01;;;;;;;16.67;14.98;;;;;;;;;;5341231;26;20474;-55
2024/04/09 05:32:27;;;;;;;16.35;14.65;;;;;;;;;;5341415;26;20043;-59
2024/04/09 05:34:56;;;;;;;16.55;14.85;;;;;;;;;;5341071;26;20068;-55
2024/04/09 05:37:22;;;;;;;17.20;15.50;;;;;;;;;;5341436;26;20079;-54
2024/04/09 05:39:48;;;;;;;17.42;15.73;;;;;;;;;;5340483;26;20455;-58
2024/04/09 05:42:15;;;;;;;17.38;15.68;;;;;;;;;;5340976;26;20415;-58
2024/04/09 05:44:41;;;;;;;17.58;15.88;;;;;;;;;;5341062;26;20075;-57
2024/04/09 05:47:07;;;;;;;16.67;14.98;;;;;;;;;;5340405;26;20005;-56
2024/04/09 05:49:36;;;;;;;16.20;14.50;;;;;;;;;;5338546;26;20008;-56
2024/04/09 05:52:02;;;;;;;15.48;13.77;;;;;;;;;;5322614;26;20008;-58
2024/04/09 05:54:28;;;;;;;15.10;13.00;;;;;;;;;;5333289;26;20009;-59
2024/04/09 05:56:54;;;;;;;14.60;11.80;;;;;;;;;;5305917;27;20012;-59
2024/04/09 05:59:21;;;;;;;14.60;11.70;;;;;;;;;;5322330;26;20454;-59
2024/04/09 06:01:47;;;;;;;14.40;11.20;;;;;;;;;;5337731;26;20104;-57
2024/04/09 06:04:14;;;;;;;16.48;11.60;;;;;;;;;;5340361;26;19993;-58
2024/04/09 06:06:40;;;;;;;14.30;10.40;;;;;;;;;;5341259;26;20448;-59
2024/04/09 06:09:08;;;;;;;14.00;10.02;;;;;;;;;;5308720;26;20440;-60
2024/04/09 06:11:34;;;;;;;15.48;11.93;;;;;;;;;;5307625;26;19998;-59
2024/04/09 06:14:00;;;;;;;14.30;10.90;;;;;;;;;;5306273;26;20008;-60
2024/04/09 06:16:27;;;;;;;14.70;11.85;;;;;;;;;;5306396;27;19993;-60
2024/04/09 06:18:53;;;;;;;15.70;14.00;;;;;;;;;;5306322;26;20452;-57
2024/04/09 06:21:18;;;;;;;23.98;21.98;;;;;;;;;;5305768;26;20017;-58
2024/04/09 06:23:48;;;;;;;45.47;40.63;;;;;;;;;;5305608;26;20016;-60
2024/04/09 06:26:18;;;;;;;36.75;34.05;;;;;;;;;;5340929;26;20001;-55
2024/04/09 06:28:44;;;;;;;35.22;32.63;;;;;;;;;;5339928;26;20009;-56
2024/04/09 06:31:10;;;;;;;33.47;30.98;;;;;;;;;;5340385;26;20005;-55
2024/04/09 06:33:36;;;;;;;34.05;31.45;;;;;;;;;;5339202;26;19997;-57
2024/04/09 06:36:03;;;;;;;33.70;31.20;;;;;;;;;;5339784;26;20008;-55
2024/04/09 06:38:30;;;;;;;32.45;29.95;;;;;;;;;;5339920;26;20456;-58
2024/04/09 06:40:56;;;;;;;31.40;29.00;;;;;;;;;;5339484;26;20000;-59
2024/04/09 06:43:22;;;;;;;30.48;28.13;;;;;;;;;;5340130;26;20008;-58
2024/04/09 06:45:49;;;;;;;30.85;28.45;;;;;;;;;;5339065;26;19997;-57
2024/04/09 06:48:15;;;;;;;29.67;27.38;;;;;;;;;;5338608;26;20004;-59
2024/04/09 06:50:41;;;;;;;29.85;27.55;;;;;;;;;;5338991;26;20497;-57
2024/04/09 06:53:07;;;;;;;29.75;27.45;;;;;;;;;;5341253;26;19997;-57
2024/04/09 06:55:33;;;;;;;29.80;27.50;;;;;;;;;;5342219;26;20007;-58
2024/04/09 06:57:59;;;;;;;29.95;27.65;;;;;;;;;;5342605;26;20001;-59
2024/04/09 07:00:25;;;;;;;32.17;29.67;;;;;;;;;;5370726;26;20065;-57
2024/04/09 07:02:54;;;;;;;33.00;30.50;;;;;;;;;;5378493;26;20007;-58
2024/04/09 07:05:20;;;;;;;39.92;36.92;;;;;;;;;;5378388;26;20000;-56
2024/04/09 07:07:46;;;;;;;42.10;38.90;;;;;;;;;;5377979;26;20059;-54
2024/04/09 07:10:13;;;;;;;41.47;38.28;;;;;;;;;;5375956;26;20000;-58
2024/04/09 07:12:39;;;;;;;40.53;37.33;;;;;;;;;;5377950;26;20294;-59
2024/04/09 07:15:05;;;;;;;42.10;38.90;;;;;;;;;;5377212;26;19996;-56
2024/04/09 07:17:31;;;;;;;41.60;38.40;;;;;;;;;;5375365;26;19988;-57
2024/04/09 07:20:00;;;;;;;41.45;38.25;;;;;;;;;;5377481;26;20002;-58
2024/04/09 07:22:26;;;;;;;40.85;37.70;;;;;;;;;;5377800;26;19996;-61
2024/04/09 07:24:53;;;;;;;41.22;38.08;;;;;;;;;;5366990;26;20481;-55
2024/04/09 07:27:18;;;;;;;40.78;37.67;;;;;;;;;;5342649;26;20004;-58
2024/04/09 07:29:44;;;;;;;41.00;37.80;;;;;;;;;;5342754;26;19997;-58
2024/04/09 07:32:12;;;;;;;41.65;38.35;;;;;;;;;;5342528;26;20335;-57
2024/04/09 07:34:38;;;;;;;41.60;38.20;;;;;;;;;;5342327;26;19998;-59
2024/04/09 07:37:04;;;;;;;40.00;36.80;;;;;;;;;;5342532;26;20000;-56
2024/04/09 07:39:30;;;;;;;38.63;35.53;;;;;;;;;;5342121;26;20001;-58
2024/04/09 07:41:56;;;;;;;35.85;32.95;;;;;;;;;;5342533;26;19997;-57
2024/04/09 07:44:23;;;;;;;35.95;33.15;;;;;;;;;;5342099;26;20008;-54
2024/04/09 07:46:49;;;;;;;37.45;34.55;;;;;;;;;;5342693;26;20470;-55
2024/04/09 07:49:16;;;;;;;38.25;35.35;;;;;;;;;;5340219;26;20017;-57
2024/04/09 07:51:42;;;;;;;37.42;34.53;;;;;;;;;;5342128;26;20008;-55
2024/04/09 07:54:09;;;;;;;37.00;34.10;;;;;;;;;;5342477;26;19998;-53
2024/04/09 07:56:34;;;;;;;38.10;35.10;;;;;;;;;;5342428;26;19997;-50
2024/04/09 07:59:01;;;;;;;38.58;35.58;;;;;;;;;;5342782;26;20443;-46
2024/04/09 08:01:27;;;;;;;37.65;34.65;;;;;;;;;;5342541;26;19989;-48
2024/04/09 08:03:53;;;;;;;38.40;35.40;;;;;;;;;;5341867;26;20041;-48
2024/04/09 08:06:19;;;;;;;39.20;36.10;;;;;;;;;;5342157;26;20075;-47
2024/04/09 08:08:45;;;;;;;39.58;36.40;;;;;;;;;;5342530;26;19989;-47
2024/04/09 08:11:13;;;;;;;40.20;37.00;;;;;;;;;;5342747;26;20225;-47
2024/04/09 08:13:39;;;;;;;40.60;37.40;;;;;;;;;;5342258;26;19997;-47
2024/04/09 08:16:05;;;;;;;39.42;36.33;;;;;;;;;;5341888;26;20069;-46
2024/04/09 08:18:32;;;;;;;38.95;35.85;;;;;;;;;;5341473;26;19989;-55
2024/04/09 08:20:58;;;;;;;41.97;38.78;;;;;;;;;;5342096;26;20033;-57
2024/04/09 08:23:24;;;;;;;42.92;39.63;;;;;;;;;;5341062;26;20145;-57
2024/04/09 08:25:50;;;;;;;47.38;43.75;;;;;;;;;;5341401;26;20416;-57
2024/04/09 08:28:19;;;;;;;49.78;46.08;;;;;;;;;;5339999;26;19989;-57
2024/04/09 08:30:46;;;;;;;48.08;44.55;;;;;;;;;;5342186;26;20007;-56
2024/04/09 08:33:14;;;;;;;47.55;43.95;;;;;;;;;;5341381;26;20471;-57
2024/04/09 08:35:47;;;;;;;46.67;43.25;;;;;;;;;;5341787;26;20070;-55
2024/04/09 08:38:13;;;;;;;45.35;42.00;;;;;;;;;;5341845;26;19993;-57
2024/04/09 08:40:39;;;;;;;46.95;43.55;;;;;;;;;;5345669;26;20005;-57
2024/04/09 08:43:06;;;;;;;44.90;41.60;;;;;;;;;;5350817;26;20011;-56
2024/04/09 08:45:32;;;;;;;39.63;36.72;;;;;;;;;;5349031;26;20011;-57
2024/04/09 08:48:00;;;;;;;36.35;33.55;;;;;;;;;;5346526;26;20003;-58
2024/04/09 08:50:26;;;;;;;33.33;30.73;;;;;;;;;;5341713;26;20453;-56
2024/04/09 08:52:55;;;;;;;32.60;30.00;;;;;;;;;;5342320;26;20008;-56
2024/04/09 08:55:21;;;;;;;30.00;27.60;;;;;;;;;;5341635;26;20454;-54
2024/04/09 08:57:48;;;;;;;28.90;26.50;;;;;;;;;;5341797;26;20011;-58
2024/04/09 09:00:16;;;;;;;28.77;26.38;;;;;;;;;;5341813;26;20044;-57
2024/04/09 09:02:43;;;;;;;28.80;26.50;;;;;;;;;;5339825;26;19997;-56
2024/04/09 09:05:19;;;;;;;28.70;26.40;;;;;;;;;;5340549;26;19993;-57
2024/04/09 09:07:45;;;;;;;29.40;27.10;;;;;;;;;;5339633;26;20029;-58
2024/04/09 09:10:13;;;;;;;30.13;27.73;;;;;;;;;;5341118;26;20004;-57
2024/04/09 09:12:39;;;;;;;31.08;28.67;;;;;;;;;;5341234;26;20004;-57
2024/04/09 09:15:05;;;;;;;30.55;28.15;;;;;;;;;;5340034;26;19997;-56
2024/04/09 09:17:34;;;;;;;31.35;28.95;;;;;;;;;;5339440;26;19997;-55
2024/04/09 09:20:08;;;;;;;31.13;28.73;;;;;;;;;;5341363;26;20008;-56
2024/04/09 09:22:36;;;;;;;31.65;29.25;;;;;;;;;;5341223;26;20012;-54
2024/04/09 09:25:05;;;;;;;31.08;28.67;;;;;;;;;;5340984;26;20055;-53
2024/04/09 09:27:31;;;;;;;30.48;28.08;;;;;;;;;;5339489;26;20458;-52
2024/04/09 09:30:00;;;;;;;30.38;27.98;;;;;;;;;;5341156;26;19993;-53
2024/04/09 09:32:26;;;;;;;29.55;27.25;;;;;;;;;;5340734;26;20063;-57
2024/04/09 09:34:56;;;;;;;29.88;27.58;;;;;;;;;;5340274;26;20067;-57
2024/04/09 09:37:25;;;;;;;29.92;27.63;;;;;;;;;;5340772;26;20077;-58
2024/04/09 09:39:51;;;;;;;29.10;26.80;;;;;;;;;;5340782;26;20005;-58
2024/04/09 09:42:18;;;;;;;28.55;26.35;;;;;;;;;;5340494;26;20351;-59
2024/04/09 09:44:45;;;;;;;28.90;26.70;;;;;;;;;;5338846;26;20007;-57
2024/04/09 09:47:11;;;;;;;29.00;26.80;;;;;;;;;;5340472;26;20005;-57
2024/04/09 09:49:37;;;;;;;28.40;26.20;;;;;;;;;;5340845;26;19993;-58
2024/04/09 09:52:07;;;;;;;26.00;24.00;;;;;;;;;;5340831;26;19997;-57
2024/04/09 09:54:33;;;;;;;26.33;24.30;;;;;;;;;;5340997;26;20005;-59
2024/04/09 09:57:02;;;;;;;26.30;24.20;;;;;;;;;;5340671;26;20008;-59
2024/04/09 09:59:31;;;;;;;26.13;24.13;;;;;;;;;;5340906;26;20016;-57
2024/04/09 10:01:57;;;;;;;25.92;23.92;;;;;;;;;;5340592;26;20291;-57
2024/04/09 10:04:25;;;;;;;26.40;24.30;;;;;;;;;;5339747;26;19993;-60
2024/04/09 10:06:58;;;;;;;26.00;24.00;;;;;;;;;;5339430;26;19993;-58
2024/04/09 10:09:41;;;;;;;26.63;24.52;;;;;;;;;;5339952;26;19997;-58
2024/04/09 10:12:07;;;;;;;25.73;23.73;;;;;;;;;;5340030;26;20028;-59
2024/04/09 10:14:40;;;;;;;25.35;23.35;;;;;;;;;;5339738;26;20066;-56
2024/04/09 10:17:10;;;;;;;25.73;23.73;;;;;;;;;;5340190;26;20008;-54
2024/04/09 10:19:36;;;;;;;25.13;23.13;;;;;;;;;;5340366;26;20078;-56
2024/04/09 10:22:03;;;;;;;24.70;22.70;;;;;;;;;;5339920;26;19993;-56
2024/04/09 10:24:34;;;;;;;23.55;21.65;;;;;;;;;;5340450;26;20471;-58
2024/04/09 10:27:00;;;;;;;21.55;19.65;;;;;;;;;;5341671;26;20007;-57
2024/04/09 10:29:29;;;;;;;18.65;16.85;;;;;;;;;;5341244;26;20004;-58
2024/04/09 10:31:55;;;;;;;17.58;15.88;;;;;;;;;;5341209;26;20025;-57
2024/04/09 10:34:26;;;;;;;17.00;15.30;;;;;;;;;;5342976;26;20364;-56
2024/04/09 10:36:52;;;;;;;16.52;14.82;;;;;;;;;;5341445;26;20037;-58
2024/04/09 10:39:20;;;;;;;16.13;14.43;;;;;;;;;;5341178;26;20534;-58
2024/04/09 10:41:53;;;;;;;17.10;15.40;;;;;;;;;;5342163;26;20005;-57
2024/04/09 10:44:19;;;;;;;18.98;17.17;;;;;;;;;;5343034;26;20382;-58
2024/04/09 10:46:45;;;;;;;20.77;18.92;;;;;;;;;;5342466;26;20074;-58
2024/04/09 10:49:11;;;;;;;27.73;25.63;;;;;;;;;;5342760;26;20338;-56
2024/04/09 10:51:37;;;;;;;28.27;26.17;;;;;;;;;;5343059;26;20023;-58
2024/04/09 10:54:03;;;;;;;27.95;25.85;;;;;;;;;;5343139;26;20108;-59
2024/04/09 10:56:31;;;;;;;26.55;24.45;;;;;;;;;;5337460;26;19997;-59
2024/04/09 10:58:57;;;;;;;25.17;23.17;;;;;;;;;;5322889;26;20041;-58
2024/04/09 11:01:23;;;;;;;24.35;22.35;;;;;;;;;;5326377;26;20433;-58
2024/04/09 11:03:49;;;;;;;23.88;21.88;;;;;;;;;;5326042;26;20009;-57
2024/04/09 11:06:15;;;;;;;21.58;19.67;;;;;;;;;;5317833;26;19994;-58
2024/04/09 11:08:42;;;;;;;20.55;18.75;;;;;;;;;;5308301;26;19994;-57
2024/04/09 11:11:08;;;;;;;20.25;18.45;;;;;;;;;;5307770;26;20367;-59
2024/04/09 11:13:35;;;;;;;20.33;18.52;;;;;;;;;;5311887;26;20296;-59
2024/04/09 11:16:01;;;;;;;19.45;17.65;;;;;;;;;;5313717;26;19993;-59
2024/04/09 11:18:28;;;;;;;19.67;17.88;;;;;;;;;;5313563;27;20109;-58
2024/04/09 11:21:00;;;;;;;19.45;17.65;;;;;;;;;;5312784;26;20553;-60
2024/04/09 11:23:28;;;;;;;18.52;16.73;;;;;;;;;;5309839;26;20006;-56
2024/04/09 11:25:54;;;;;;;18.07;16.27;;;;;;;;;;5308077;26;20402;-57
2024/04/09 11:28:21;;;;;;;17.80;16.00;;;;;;;;;;5306110;26;19997;-58
2024/04/09 11:30:51;;;;;;;16.60;14.90;;;;;;;;;;5308671;26;20005;-59
2024/04/09 11:33:18;;;;;;;15.00;12.48;;;;;;;;;;5306140;26;19993;-57
2024/04/09 11:35:45;;;;;;;14.70;11.70;;;;;;;;;;5307421;26;20012;-59
2024/04/09 11:38:12;;;;;;;14.60;11.30;;;;;;;;;;5307202;26;20034;-57
2024/04/09 11:40:38;;;;;;;14.38;10.80;;;;;;;;;;5307927;26;20705;-57
2024/04/09 11:43:04;;;;;;;14.30;10.60;;;;;;;;;;5307566;26;20005;-58
2024/04/09 11:45:32;;;;;;;14.30;10.55;;;;;;;;;;5306196;26;20569;-59
2024/04/09 11:47:58;;;;;;;14.27;10.50;;;;;;;;;;5308993;26;20090;-54
2024/04/09 11:50:25;;;;;;;14.25;10.50;;;;;;;;;;5308293;26;20511;-59
2024/04/09 11:52:51;;;;;;;14.10;10.18;;;;;;;;;;5335287;26;20017;-60
2024/04/09 11:55:17;;;;;;;14.15;10.10;;;;;;;;;;5365255;21;20443;-55
2024/04/09 11:57:45;;;;;;;14.02;10.00;;;;;;;;;;5343431;26;20009;-55
2024/04/09 12:00:12;;;;;;;14.02;9.77;;;;;;;;;;5343048;26;20001;-53
2024/04/09 12:02:42;;;;;;;15.82;10.02;;;;;;;;;;5313060;26;20465;-56
2024/04/09 12:05:08;;;;;;;14.00;9.77;;;;;;;;;;5342577;26;19997;-58
2024/04/09 12:07:34;;;;;;;13.90;9.50;;;;;;;;;;5341244;26;20011;-56
2024/04/09 12:10:00;;;;;;;13.90;9.65;;;;;;;;;;5341702;26;19997;-54
2024/04/09 12:12:26;;;;;;;14.00;9.88;;;;;;;;;;5342893;26;20005;-52
2024/04/09 12:14:52;;;;;;;13.82;9.38;;;;;;;;;;5342410;26;20016;-56
2024/04/09 12:17:18;;;;;;;13.90;9.45;;;;;;;;;;5343241;26;20336;-54
2024/04/09 12:19:44;;;;;;;13.77;9.15;;;;;;;;;;5343378;26;19997;-58
2024/04/09 12:22:14;;;;;;;13.48;8.52;;;;;;;;;;5343470;26;20037;-54
2024/04/09 12:24:40;;;;;;;13.63;8.88;;;;;;;;;;5343112;26;20044;-55
2024/04/09 12:27:07;;;;;;;13.88;9.45;;;;;;;;;;5343483;26;20007;-57
2024/04/09 12:29:33;;;;;;;13.98;9.80;;;;;;;;;;5339164;26;20448;-55
2024/04/09 12:32:00;;;;;;;13.98;9.82;;;;;;;;;;5318078;26;20016;-53
2024/04/09 12:34:26;;;;;;;14.02;9.88;;;;;;;;;;5306791;27;20078;-51
2024/04/09 12:36:52;;;;;;;14.00;9.90;;;;;;;;;;5307059;27;20001;-54
2024/04/09 12:39:18;;;;;;;15.55;10.48;;;;;;;;;;5308088;27;20296;-50
2024/04/09 12:41:44;;;;;;;14.30;9.60;;;;;;;;;;5309197;27;19998;-54
2024/04/09 12:44:10;;;;;;;13.77;9.23;;;;;;;;;;5309110;27;20363;-51
2024/04/09 12:46:36;;;;;;;13.80;9.25;;;;;;;;;;5320896;26;20355;-56
2024/04/09 12:49:05;;;;;;;13.70;8.98;;;;;;;;;;5342426;26;19997;-53
2024/04/09 12:51:32;;;;;;;13.98;9.70;;;;;;;;;;5341367;26;20028;-47
2024/04/09 12:53:58;;;;;;;14.10;9.93;;;;;;;;;;5342027;26;20453;-54
2024/04/09 12:56:24;;;;;;;14.07;10.02;;;;;;;;;;5340698;26;20032;-53
2024/04/09 12:58:50;;;;;;;14.20;10.30;;;;;;;;;;5342569;26;20004;-54
2024/04/09 13:01:16;;;;;;;13.95;9.80;;;;;;;;;;5341540;26;20071;-55
2024/04/09 13:03:43;;;;;;;14.02;10.00;;;;;;;;;;5343817;26;20001;-53
2024/04/09 13:06:09;;;;;;;13.93;9.65;;;;;;;;;;5342516;26;20015;-51
2024/04/09 13:08:35;;;;;;;14.02;9.88;;;;;;;;;;5342466;26;20004;-53
2024/04/09 13:11:01;;;;;;;14.68;10.00;;;;;;;;;;5342437;26;19993;-52
2024/04/09 13:13:27;;;;;;;14.40;10.70;;;;;;;;;;5340420;26;20513;-57
2024/04/09 13:15:54;;;;;;;14.00;9.80;;;;;;;;;;5340450;26;20053;-52
2024/04/09 13:18:20;;;;;;;14.05;10.10;;;;;;;;;;5342589;26;20105;-52
2024/04/09 13:20:46;;;;;;;14.10;10.20;;;;;;;;;;5342632;26;20001;-52
2024/04/09 13:23:12;;;;;;;14.05;9.95;;;;;;;;;;5342381;26;20008;-63
2024/04/09 13:25:38;;;;;;;14.00;9.88;;;;;;;;;;5342224;26;20068;-53
2024/04/09 13:28:04;;;;;;;14.50;10.20;;;;;;;;;;5375086;26;20000;-52
2024/04/09 13:30:31;;;;;;;14.10;10.05;;;;;;;;;;5376876;26;20019;-52
2024/04/09 13:32:57;;;;;;;17.13;10.57;;;;;;;;;;4978267;26;9999818;-54
2024/04/09 13:35:23;;;;;;;14.10;10.20;;;;;;;;;;5338899;26;20001;-52
2024/04/09 13:37:49;;;;;;;14.50;10.80;;;;;;;;;;5323901;26;20500;-54
2024/04/09 13:40:15;;;;;;;15.02;10.88;;;;;;;;;;5304507;27;20005;-53
2024/04/09 13:42:42;;;;;;;14.77;10.40;;;;;;;;;;5327557;26;20037;-48
2024/04/09 13:45:09;;;;;;;14.23;10.35;;;;;;;;;;5339053;26;20013;-50
2024/04/09 13:47:35;;;;;;;14.23;10.55;;;;;;;;;;5339547;26;20632;-55
2024/04/09 13:50:01;;;;;;;14.38;10.75;;;;;;;;;;5332428;26;20005;-55
2024/04/09 13:52:27;;;;;;;14.40;10.88;;;;;;;;;;5307044;27;20013;-50
2024/04/09 13:54:53;;;;;;;14.30;10.60;;;;;;;;;;5307109;27;20008;-53
2024/04/09 13:57:19;;;;;;;14.25;10.50;;;;;;;;;;5306231;26;20017;-50
2024/04/09 13:59:45;;;;;;;14.20;10.40;;;;;;;;;;5307301;27;20525;-53
2024/04/09 14:02:15;;;;;;;16.60;10.80;;;;;;;;;;5309118;26;20025;-52
2024/04/09 14:04:44;;;;;;;16.92;10.82;;;;;;;;;;5309339;26;20452;-54
2024/04/09 14:07:10;;;;;;;14.10;10.05;;;;;;;;;;5315822;26;20491;-49
2024/04/09 14:09:36;;;;;;;14.20;10.05;;;;;;;;;;5344904;26;20575;-51
2024/04/09 14:12:02;;;;;;;14.05;9.98;;;;;;;;;;5344756;26;20005;-51
2024/04/09 14:14:28;;;;;;;14.20;10.40;;;;;;;;;;5344471;26;20001;-50
2024/04/09 14:16:54;;;;;;;14.40;10.27;;;;;;;;;;5344431;26;20012;-52
2024/04/09 14:19:21;;;;;;;14.18;10.23;;;;;;;;;;5340868;26;20066;-52